首页
METAR-TAF:

METAR-TAF

机场 :

布達佩斯李斯特·費倫茨國際機場

布达佩斯, 匈牙利

纬度: 47-26N, 经度: 019-16E, 海拔: 151米

当前天气观测

该预报发布于27分钟前的14:00 UTC
风速5节,风向
温度 0°C
湿度 93%
气压 1022 hPa
能見度: 3000
阴天层高于600英尺
轻雾

METAR: LHBP 261400Z 09005KT 3000 BR OVC006 00/M01 Q1022 TEMPO FM1430 2500 BR

时间: 15:27 (14:27 UTC)

预报

该预报发布于3小时和12分钟前的11:15 UTC
预报有效从26日的 12点(UTC)到 27日的 12点(UTC)
风速4节,风向
能見度: 6000
阴天层高于1000英尺
短暂存在
从 26日的 12点(UTC)到 26日的 20点(UTC)
能見度: 2500
多云层高于400英尺
阴天层高于1000英尺
轻雾
成为
从 26日的 16点(UTC)到 26日的 18点(UTC)
风速3节,风向多变
短暂存在
从 26日的 20点(UTC)到 27日的 10点(UTC)
能見度: 1400
阴天层高于300英尺
小雨, (小) 冻, 雨, 轻雾
短暂存在
从 27日的 10点(UTC)到 27日的 12点(UTC)
能見度: 3000
多云层高于700英尺
阴天层高于1800英尺
轻雾

TAF: LHBP 261115Z 2612/2712 08004KT 6000 OVC010 TEMPO 2612/2620 2500 BR BKN004 OVC010 BECMG 2616/2618 VRB03KT TEMPO 2620/2710 1400 -RA -FZRA BR OVC003 TEMPO 2710/2712 3000 BR BKN007 OVC018

超过4000个机场的气象观测和天气预报(METAR&TAF报告)。

可查询的气象台以黄色和红色小点在地图上表示。

将鼠标移到小点上方,可查看气象台名称。

然后点击查看天气观测和预报。

如需切换地图:点击带黑十字的绿色按钮放大地图;点击带横线的绿色按钮缩小地图;或者点击绿色箭头查看邻近地区的地图。


METAR-TAF: